Kempton, Illinois
Current Conditions -  °F | °C
As of 3:55 AM on Sunday 23 Nov 2014 (Local Time) from KPNT Reporting Station
Scattered Clouds Scattered Clouds  
Wind Chill: 43°   Ceiling: Unl
Heat Index: 49°   Visibility: 10mi
Dew Point: 44°   Wind: 14mph
Humidity: 86%   Direction: 160°SSE
Pressure: 29.78"   Gusts: NA
Location:  40.94°N, 88.24°W
Report Text: KPNT 230955Z AUTO 16012KT 10SM SCT070 09/07 A2978 RMK AO2 T00920069
Loading
Personal Weather Stations






























Interactive Weather Map New forecast layout! Learn more

10-Day Weather Forecast

Advertisements
Track Severe Weather on mobile